Latest Weather Observations for Ernabella/Pukatja

IDD60801

Issued at 9:01 pm CST Tuesday 21 April 2015 (issued every 30 minutes, with the page automatically refreshed every 10 minutes)

About weather observations | Map of weather stations | Latest weather observations for NT | Other Formats
Station Details ID: 016097 Name: PUKATJA Lat: -26.26 Lon: 132.18 Height: 703.2 m
Data from the previous 72 hours. | See also: Recent months at Ernabella/Pukatja
Date/Time
CST
Temp
°C
App
Temp
°C
Dew
Point
Rel
Hum
%
Delta-T
°C
Wind Press
QNH
hPa
Press
MSL
hPa
Rain
since 9 am
mm
Dir
 
Spd
km/h
Gust
km/h
Spd
kts
Gust
kts
21/09:00pm 14.8 8.8 -6.7 22 8.1 E 17 24 9 13 1025.4 1022.3 0.0
21/08:30pm 15.3 8.7 -6.9 21 8.4 E 20 26 11 14 1025.0 - 0.0
21/08:00pm 15.8 8.8 -7.1 20 8.7 E 22 28 12 15 1024.9 - 0.0
21/07:30pm 16.1 9.4 -7.5 19 8.9 E 20 32 11 17 1024.6 - 0.0
21/07:00pm 16.1 10.0 -7.5 19 8.9 E 17 24 9 13 1024.4 - 0.0
21/06:30pm 16.5 9.8 -7.9 18 9.2 E 20 28 11 15 1024.2 - 0.0
21/06:00pm 17.0 9.6 -7.5 18 9.3 E 24 30 13 16 1024.1 1021.0 0.0
21/05:30pm 17.4 10.7 -7.9 17 9.6 E 20 26 11 14 1024.2 - 0.0
21/05:00pm 17.7 10.6 -8.4 16 9.9 E 22 28 12 15 1024.2 - 0.0
21/04:30pm 18.1 10.6 -8.9 15 10.2 E 24 33 13 18 1024.0 - 0.0
21/04:00pm 18.4 11.0 -7.8 16 10.1 E 24 35 13 19 1024.1 - 0.0
21/03:30pm 17.8 10.4 -7.5 17 9.8 E 24 33 13 18 1024.4 - 0.0
21/03:00pm 19.2 11.7 -8.0 15 10.5 E 24 37 13 20 1024.7 1021.5 0.0
21/02:30pm 18.5 11.4 -7.8 16 10.2 E 22 30 12 16 1024.9 - 0.0
21/02:00pm 17.8 10.8 -6.8 18 9.6 E 22 32 12 17 1025.4 - 0.0
21/01:30pm 17.4 10.1 -5.8 20 9.2 E 24 33 13 18 1025.7 - 0.0
21/01:00pm 16.8 9.6 -5.6 21 8.9 E 24 35 13 19 1026.2 - 0.0
21/12:30pm 16.7 8.8 -4.5 23 8.6 E 28 35 15 19 1026.8 - 0.0
21/12:00pm 15.9 7.6 -4.6 24 8.2 E 30 41 16 22 1027.5 1024.5 0.0
21/11:30am 15.1 7.3 -4.2 26 7.8 ENE 28 41 15 22 1028.1 - 0.0
21/11:00am 14.2 6.3 -4.5 27 7.4 ENE 28 37 15 20 1028.6 - 0.0
21/10:30am 13.6 5.1 -3.6 30 6.9 ENE 32 44 17 24 1028.8 - 0.0
21/10:00am 12.9 4.3 -3.8 31 6.6 E 32 43 17 23 1029.4 - 0.0
21/09:30am 11.7 3.1 -4.4 32 6.2 E 32 44 17 24 1029.5 - 0.0
21/09:00am 10.9 2.3 -4.3 34 5.8 E 32 41 17 22 1029.5 1026.4 0.0
21/08:30am 10.0 1.8 -4.0 37 5.4 ENE 30 39 16 21 1029.4 - 0.0
21/08:00am 9.1 1.7 -3.8 40 4.9 ENE 26 35 14 19 1029.0 - 0.0
21/07:30am 8.5 1.6 -3.0 44 4.4 E 24 32 13 17 1029.0 - 0.0
21/07:00am 8.3 1.7 -2.9 45 4.3 E 22 30 12 16 1028.9 - 0.0
21/06:30am 8.5 1.6 -2.7 45 4.3 E 24 32 13 17 1028.8 - 0.0
21/06:00am 8.4 2.2 -3.4 43 4.5 ENE 20 28 11 15 1028.7 1025.7 0.0
21/05:30am 8.6 2.5 -3.6 42 4.6 E 19 24 10 13 1028.6 - 0.0
21/05:00am 8.6 2.4 -3.3 43 4.6 E 20 28 11 15 1028.5 - 0.0
21/04:30am 9.0 2.4 -3.5 41 4.8 E 22 32 12 17 1028.4 - 0.0
21/04:00am 9.4 2.0 -3.5 40 5.0 E 26 39 14 21 1028.3 - 0.0
21/03:30am 8.9 3.1 -4.3 39 5.0 ENE 17 20 9 11 1028.5 - 0.0
21/03:00am 9.5 3.2 -4.1 38 5.1 E 20 26 11 14 1028.5 1025.4 0.0
21/02:30am 10.0 2.9 -4.4 36 5.5 E 24 33 13 18 1028.7 - 0.0
21/02:00am 10.2 3.5 -4.6 35 5.6 E 22 30 12 16 1028.8 - 0.0
21/01:30am 10.6 3.9 -4.6 34 5.7 E 22 28 12 15 1029.0 - 0.0
21/01:00am 11.0 4.3 -4.6 33 6.0 E 22 28 12 15 1028.9 - 0.0
21/12:30am 11.4 4.7 -4.3 33 6.1 E 22 33 12 18 1029.2 - 0.0
21/12:00am 11.6 4.9 -4.5 32 6.1 E 22 30 12 16 1029.4 1026.3 0.0
 
Date/Time
CST
Temp
°C
App
Temp
°C
Dew
Point
Rel
Hum
%
Delta-T
°C
Wind Press
QNH
hPa
Press
MSL
hPa
Rain
since 9 am
mm
Dir
 
Spd
km/h
Gust
km/h
Spd
kts
Gust
kts
20/11:30pm 11.9 4.4 -4.7 31 6.4 E 26 37 14 20 1029.3 - 0.0
20/11:00pm 12.3 4.4 -4.8 30 6.6 E 28 37 15 20 1029.5 - 0.0
20/10:30pm 12.6 5.1 -4.5 30 6.7 E 26 37 14 20 1029.7 - 0.0
20/10:00pm 12.9 5.8 -4.7 29 6.8 E 24 35 13 19 1029.7 - 0.0
20/09:30pm 13.1 6.0 -4.5 29 6.9 E 24 37 13 20 1029.5 - 0.0
20/09:00pm 13.4 6.3 -4.2 29 6.9 ESE 24 32 13 17 1029.5 1026.4 0.0
20/08:30pm 13.7 7.0 -4.0 29 7.1 ESE 22 33 12 18 1029.2 - 0.0
20/08:00pm 13.9 7.6 -4.3 28 7.2 ESE 20 26 11 14 1029.0 - 0.0
20/07:30pm 14.4 7.7 -4.3 27 7.5 ESE 22 32 12 17 1028.9 - 0.0
20/07:00pm 14.6 8.5 -4.2 27 7.5 E 19 26 10 14 1028.7 - 0.0
20/06:30pm 15.0 7.9 -4.3 26 7.7 ESE 24 32 13 17 1028.2 - 0.0
20/06:00pm 15.6 8.4 -4.9 24 8.1 E 24 33 13 18 1028.0 1024.9 0.0
20/05:30pm 16.6 9.1 -4.6 23 8.6 ESE 26 37 14 20 1027.8 - 0.0
20/05:00pm 16.9 10.2 -3.8 24 8.6 ESE 22 33 12 18 1027.8 - 0.0
20/04:30pm 17.6 10.1 -4.3 22 9.0 E 26 39 14 21 1027.4 - 0.0
20/04:00pm 17.8 10.1 -3.0 24 8.8 E 28 37 15 20 1027.4 - 0.0
20/03:30pm 17.9 10.1 -4.1 22 9.1 E 28 39 15 21 1027.5 - 0.0
20/03:00pm 17.8 9.7 -3.0 24 8.8 E 30 46 16 25 1027.8 1024.7 0.0
20/02:58pm 18.2 10.5 -3.2 23 9.1 E 28 46 15 25 1027.8 - 0.0
20/02:30pm 17.2 10.0 -2.4 26 8.4 E 26 33 14 18 1027.9 - 0.0
20/02:00pm 16.6 8.3 -2.0 28 8.0 ESE 32 43 17 23 1028.2 - 0.0
20/01:30pm 16.3 8.0 -1.7 29 7.7 ESE 32 43 17 23 1028.7 - 0.0
20/01:08pm 16.8 9.3 -1.3 29 7.9 ESE 28 46 15 25 1028.9 - 0.0
20/01:00pm 16.0 7.8 -1.1 31 7.4 E 32 46 17 25 1029.2 - 0.0
20/12:30pm 15.6 7.5 -0.6 33 7.1 E 32 44 17 24 1029.8 - 0.0
20/12:00pm 14.6 6.4 -0.7 35 6.6 E 32 46 17 25 1030.4 1027.4 0.0
20/11:30am 14.3 6.0 -0.2 37 6.3 E 33 44 18 24 1030.9 - 0.0
20/11:00am 13.6 5.4 0.3 40 5.8 E 33 48 18 26 1031.2 - 0.0
20/10:30am 12.3 4.1 0.4 44 5.2 E 33 44 18 24 1031.6 - 0.0
20/10:00am 12.0 3.1 0.8 46 4.9 E 37 46 20 25 1031.8 - 0.0
20/09:30am 11.7 3.2 0.8 47 4.7 E 35 43 19 23 1031.8 - 0.0
20/09:10am 10.9 2.4 0.9 50 4.3 E 35 54 19 29 1031.9 - 0.0
20/09:00am 10.8 2.3 0.8 50 4.3 E 35 46 19 25 1032.0 1029.0 0.0
20/08:30am 10.0 2.5 0.9 53 3.9 E 30 43 16 23 1031.8 - 0.0
20/08:00am 9.2 1.3 0.9 56 3.5 E 32 44 17 24 1031.5 - 0.0
20/07:30am 8.8 1.3 1.0 58 3.3 E 30 41 16 22 1031.2 - 0.0
20/07:00am 8.5 0.9 0.7 58 3.3 ESE 30 41 16 22 1030.5 - 0.0
20/06:51am 8.5 1.3 0.7 58 3.3 ESE 28 46 15 25 1030.4 - 0.0
20/06:30am 8.7 1.1 0.7 57 3.4 ESE 30 41 16 22 1030.2 - 0.0
20/06:00am 8.9 1.7 0.6 56 3.5 ESE 28 39 15 21 1030.0 1027.0 0.0
20/05:30am 9.0 1.8 0.5 55 3.6 ESE 28 43 15 23 1030.0 - 0.0
20/05:00am 9.4 2.1 0.1 52 3.9 ESE 28 41 15 22 1029.9 - 0.0
20/04:30am 9.8 2.1 0.2 51 4.0 ESE 30 39 16 21 1029.7 - 0.0
20/04:00am 10.2 2.1 -0.3 48 4.4 ESE 32 44 17 24 1029.8 - 0.0
20/03:30am 10.5 3.5 -0.6 46 4.6 ESE 26 37 14 20 1030.0 - 0.0
20/03:00am 10.8 2.7 -0.6 45 4.7 ESE 32 46 17 25 1030.2 1027.2 0.0
20/02:30am 11.2 3.8 -0.6 44 4.9 ESE 28 39 15 21 1030.4 - 0.0
20/02:15am 11.4 3.7 -0.4 44 5.0 ESE 30 48 16 26 1030.4 - 0.0
20/02:00am 11.6 3.5 -0.2 44 5.0 ESE 32 44 17 24 1030.3 - 0.0
20/01:30am 11.9 4.6 -0.3 43 5.2 ESE 28 41 15 22 1030.5 - 0.0
20/01:00am 12.1 4.8 -0.1 43 5.2 ESE 28 39 15 21 1030.5 - 0.0
20/12:30am 12.5 5.2 0.3 43 5.3 ESE 28 35 15 19 1030.5 - 0.0
20/12:00am 12.9 6.5 1.0 44 5.2 SE 24 33 13 18 1030.5 1027.5 0.0
 
Date/Time
CST
Temp
°C
App
Temp
°C
Dew
Point
Rel
Hum
%
Delta-T
°C
Wind Press
QNH
hPa
Press
MSL
hPa
Rain
since 9 am
mm
Dir
 
Spd
km/h
Gust
km/h
Spd
kts
Gust
kts
19/11:30pm 13.4 6.6 1.1 43 5.5 ESE 26 35 14 19 1030.8 - 0.0
19/11:00pm 13.8 8.0 2.1 45 5.3 ESE 22 33 12 18 1030.9 - 0.0
19/10:30pm 14.5 8.3 2.4 44 5.6 SE 24 37 13 20 1030.9 - 0.0
19/10:00pm 14.9 9.2 2.8 44 5.6 ESE 22 33 12 18 1030.7 - 0.0
19/09:30pm 15.5 9.9 3.6 45 5.7 ESE 22 33 12 18 1030.5 - 0.0
19/09:00pm 15.8 10.3 4.2 46 5.6 ESE 22 32 12 17 1030.4 1027.4 0.0
19/08:30pm 16.2 10.5 4.9 47 5.6 ESE 24 39 13 21 1030.1 - 0.0
19/08:00pm 16.4 11.1 5.1 47 5.6 ESE 22 33 12 18 1029.7 - 0.0
19/07:30pm 16.5 11.7 5.5 48 5.5 ESE 20 32 11 17 1028.9 - 0.0
19/07:00pm 16.6 11.8 5.6 48 5.5 ESE 20 33 11 18 1028.7 - 0.0
19/06:30pm 16.8 11.6 5.7 48 5.6 SE 22 35 12 19 1028.6 - 0.0
19/06:00pm 17.1 11.9 5.7 47 5.7 ESE 22 35 12 19 1028.2 1025.1 0.0
19/05:30pm 17.4 11.2 6.3 48 5.7 ESE 28 37 15 20 1027.9 - 0.0
19/05:00pm 17.8 11.6 6.3 47 5.9 SE 28 39 15 21 1027.9 - 0.0
19/04:30pm 18.6 12.9 6.8 46 6.1 SE 26 39 14 21 1027.8 - 0.0
19/04:00pm 19.6 13.9 6.7 43 6.7 ESE 26 37 14 20 1027.7 - 0.0
19/03:30pm 20.1 14.0 6.4 41 7.1 SE 28 37 15 20 1027.4 - 0.0
19/03:00pm 20.8 15.8 6.4 39 7.5 SE 22 37 12 20 1027.0 1023.9 0.0
19/02:30pm 19.8 13.9 5.8 40 7.2 SE 26 37 14 20 1026.8 - 0.0
19/02:00pm 21.4 15.9 5.7 36 8.1 ESE 24 35 13 19 1026.9 - 0.0
19/01:30pm 19.8 13.8 5.5 39 7.3 SE 26 35 14 19 1027.4 - 0.0
19/01:00pm 18.8 13.4 6.3 44 6.4 ESE 24 37 13 20 1028.1 - 0.0
19/12:30pm 19.1 13.2 5.9 42 6.8 ESE 26 35 14 19 1028.3 - 0.0
19/12:00pm 18.5 12.4 6.4 45 6.2 ESE 28 39 15 21 1028.7 1025.7 0.0
19/11:30am 18.1 12.3 6.3 46 6.0 ESE 26 35 14 19 1029.2 - 0.0
19/11:00am 17.9 12.1 6.4 47 5.9 ESE 26 35 14 19 1029.4 - 0.0
19/10:30am 17.1 11.8 6.9 51 5.3 ESE 24 33 13 18 1029.5 - 0.0
19/10:00am 15.5 9.4 6.5 55 4.6 SE 28 39 15 21 1029.6 - 0.0
19/09:30am 14.3 7.8 6.6 60 3.9 ESE 30 41 16 22 1029.5 - 0.0
19/09:00am 13.7 8.7 6.6 62 3.5 ESE 22 33 12 18 1029.2 1026.1 0.0
19/08:30am 13.2 8.7 6.3 63 3.4 SE 19 26 10 14 1028.9 - 0.0
19/08:00am 12.6 9.3 6.2 65 3.2 ESE 13 19 7 10 1028.4 - 0.0
19/07:30am 11.9 7.2 6.2 68 2.8 SE 20 28 11 15 1028.1 - 0.0
19/07:00am 12.0 6.2 6.1 67 2.9 SE 26 33 14 18 1027.7 - 0.0
19/06:30am 12.1 5.5 5.9 66 3.0 SSE 30 41 16 22 1027.3 - 0.0
19/06:00am 12.3 6.4 5.9 65 3.1 SE 26 35 14 19 1026.7 1023.6 0.0
19/05:30am 12.6 7.1 5.8 63 3.3 SSE 24 37 13 20 1026.3 - 0.0
19/05:00am 12.8 6.8 5.5 61 3.5 SSE 26 39 14 21 1026.0 - 0.0
19/04:30am 13.3 7.3 5.5 59 3.8 SSE 26 35 14 19 1026.0 - 0.0
19/04:00am 13.6 8.0 5.3 57 4.0 SSE 24 33 13 18 1026.0 - 0.0
19/03:30am 13.7 7.6 4.8 55 4.3 SE 26 35 14 19 1025.6 - 0.0
19/03:00am 14.1 7.2 4.7 53 4.5 SSE 30 41 16 22 1025.6 1022.5 0.0
19/02:30am 14.3 9.2 4.3 51 4.8 SSE 20 28 11 15 1025.8 - 0.0
19/02:00am 14.7 9.2 4.1 49 5.1 SSE 22 33 12 18 1026.0 - 0.0
19/01:30am 15.1 10.2 3.9 47 5.4 SSE 19 30 10 16 1026.4 - 0.0
19/01:00am 15.6 9.7 3.7 45 5.7 SSE 24 32 13 17 1026.2 - 0.0
19/12:30am 16.1 11.0 3.9 44 5.9 SSE 20 28 11 15 1026.2 - 0.0
19/12:00am 16.2 12.1 4.6 46 5.6 SSE 15 20 8 11 1026.2 1023.1 0.0
 
Date/Time
CST
Temp
°C
App
Temp
°C
Dew
Point
Rel
Hum
%
Delta-T
°C
Wind Press
QNH
hPa
Press
MSL
hPa
Rain
since 9 am
mm
Dir
 
Spd
km/h
Gust
km/h
Spd
kts
Gust
kts
18/11:30pm 16.5 12.6 5.2 47 5.6 SSE 15 20 8 11 1026.3 - 0.0
18/11:00pm 16.7 12.3 5.0 46 5.8 SSE 17 20 9 11 1026.0 - 0.0
18/10:30pm 17.0 12.3 5.0 45 5.9 SSE 19 24 10 13 1025.9 - 0.0
18/10:00pm 17.2 12.5 5.2 45 6.0 SSE 19 24 10 13 1026.0 - 0.0
18/09:30pm 17.3 13.5 5.6 46 5.9 SSE 15 20 8 11 1025.9 - 0.0

Other Formats:

Comma delimited format used in spreadsheet applications
http://www.bom.gov.au/fwo/IDD60801/IDD60801.94474.axf

JavaScript Object Notation format (JSON) in row-major order
http://www.bom.gov.au/fwo/IDD60801/IDD60801.94474.json